Bristol, Georgia
Current Conditions -  °F | °C
As of 1:10 PM on Friday 28 Nov 2014 (Local Time) from KAYS Reporting Station
Clear Clear  
Wind Chill: 53°   Ceiling: Unl
Heat Index: 53°   Visibility: 10mi
Dew Point: 32°   Wind: 3mph
Humidity: 44%   Direction: 50°NE
Pressure: 30.35"   Gusts: NA
Location:  31.45°N, 82.21°W
Report Text: KAYS 281810Z AUTO 05003KT 10SM CLR 12/00 A3035 RMK AO2 T01161002
Loading
Personal Weather Stations






























Interactive Weather Map New forecast layout! Learn more

10-Day Weather Forecast

Advertisements
Track Severe Weather on mobile